createdAt,value
2023-08-23T00:01:34.084Z,24.94
2023-08-23T00:03:35.698Z,24.83
2023-08-23T00:05:37.537Z,24.76
2023-08-23T00:07:39.089Z,24.76
2023-08-23T00:09:40.625Z,24.78
2023-08-23T00:11:42.269Z,24.72
2023-08-23T00:13:47.555Z,24.68
2023-08-23T00:15:49.287Z,24.62
2023-08-23T00:17:51.062Z,24.52
2023-08-23T00:19:52.801Z,24.48
2023-08-23T00:21:54.361Z,24.50
2023-08-23T00:23:56.141Z,24.49
2023-08-23T00:25:57.717Z,24.49
2023-08-23T00:28:12.588Z,24.49
2023-08-23T00:30:16.803Z,24.47
2023-08-23T00:32:18.350Z,24.52
2023-08-23T00:34:20.561Z,24.50
2023-08-23T00:36:22.232Z,24.52
2023-08-23T00:38:23.746Z,24.53
2023-08-23T00:40:25.324Z,24.55
2023-08-23T00:42:26.940Z,24.56
2023-08-23T00:44:28.436Z,24.59
2023-08-23T00:46:30.074Z,24.58
2023-08-23T00:48:32.448Z,24.56
2023-08-23T00:50:34.571Z,24.54
2023-08-23T00:52:52.210Z,24.49
2023-08-23T00:54:54.963Z,24.47
2023-08-23T00:56:57.082Z,24.46
2023-08-23T00:59:00.199Z,24.45
2023-08-23T01:01:02.150Z,24.42
2023-08-23T01:03:03.858Z,24.41
2023-08-23T01:05:05.498Z,24.40
2023-08-23T01:07:07.338Z,24.41
2023-08-23T01:09:11.573Z,24.40
2023-08-23T01:11:25.862Z,24.36
2023-08-23T01:13:41.969Z,24.37
2023-08-23T01:15:43.734Z,24.37
2023-08-23T01:17:45.415Z,24.40
2023-08-23T01:19:48.496Z,24.45
2023-08-23T01:21:50.006Z,24.48
2023-08-23T01:23:52.103Z,24.49
2023-08-23T01:25:53.813Z,24.50
2023-08-23T01:27:57.492Z,24.52
2023-08-23T01:29:59.617Z,24.56
2023-08-23T01:32:21.384Z,24.57
2023-08-23T01:34:26.801Z,24.57
2023-08-23T01:36:31.823Z,24.59
2023-08-23T01:38:33.492Z,24.61
2023-08-23T01:40:35.066Z,24.61
2023-08-23T01:42:37.018Z,24.46
2023-08-23T01:44:41.948Z,24.32
2023-08-23T01:46:44.439Z,24.04
2023-08-23T01:48:46.044Z,23.77
2023-08-23T01:50:48.347Z,23.56
2023-08-23T01:52:49.899Z,23.46
2023-08-23T01:54:51.646Z,23.56
2023-08-23T01:56:53.248Z,23.69
2023-08-23T01:58:54.789Z,23.76
2023-08-23T02:00:57.178Z,23.76
2023-08-23T02:02:58.975Z,23.68
2023-08-23T02:05:00.665Z,23.64
2023-08-23T02:07:02.230Z,23.56
2023-08-23T02:09:03.772Z,23.51
2023-08-23T02:11:05.313Z,23.45
2023-08-23T02:13:08.119Z,23.40
2023-08-23T02:15:10.591Z,23.38
2023-08-23T02:17:12.135Z,23.39
2023-08-23T02:19:13.773Z,23.44
2023-08-23T02:21:15.294Z,23.51
2023-08-23T02:23:16.897Z,23.54
2023-08-23T02:25:18.702Z,23.56
2023-08-23T02:27:20.299Z,23.62
2023-08-23T02:29:21.939Z,23.68
2023-08-23T02:31:23.573Z,23.74
2023-08-23T02:33:25.435Z,23.78
2023-08-23T02:35:27.069Z,23.81
2023-08-23T02:37:28.679Z,23.81
2023-08-23T02:39:30.210Z,23.82
2023-08-23T02:41:31.846Z,23.76
2023-08-23T02:43:33.492Z,23.71
2023-08-23T02:45:38.468Z,23.70
2023-08-23T02:47:40.027Z,23.73
2023-08-23T02:49:41.738Z,23.51
2023-08-23T02:51:43.239Z,23.25
2023-08-23T02:53:45.374Z,23.17
2023-08-23T02:55:47.062Z,23.13
2023-08-23T02:57:48.777Z,22.99
2023-08-23T02:59:50.508Z,22.95
2023-08-23T03:01:52.276Z,22.91
2023-08-23T03:03:53.872Z,22.87
2023-08-23T03:05:59.063Z,22.85
2023-08-23T03:08:01.797Z,22.81
2023-08-23T03:10:03.345Z,22.82
2023-08-23T03:12:05.106Z,22.89
2023-08-23T03:14:06.691Z,22.91
2023-08-23T03:16:08.253Z,22.82
2023-08-23T03:18:10.056Z,22.74
2023-08-23T03:20:11.790Z,22.80
2023-08-23T03:22:13.403Z,22.87
2023-08-23T03:24:14.975Z,22.95
2023-08-23T03:26:16.722Z,23.02
2023-08-23T03:28:18.572Z,23.03
2023-08-23T03:30:20.400Z,22.85
2023-08-23T03:32:22.175Z,22.83
2023-08-23T03:34:23.849Z,22.89
2023-08-23T03:36:25.682Z,22.89
2023-08-23T03:38:27.265Z,22.87
2023-08-23T03:40:28.864Z,22.87
2023-08-23T03:42:30.557Z,22.87
2023-08-23T03:44:32.189Z,22.86
2023-08-23T03:46:33.858Z,22.84
2023-08-23T03:48:35.471Z,22.86
2023-08-23T03:50:37.039Z,22.90
2023-08-23T03:52:38.704Z,22.95
2023-08-23T03:54:40.369Z,22.98
2023-08-23T03:56:41.918Z,23.01
2023-08-23T03:58:44.120Z,23.05
2023-08-23T04:00:49.981Z,23.08
2023-08-23T04:02:51.786Z,23.13
2023-08-23T04:04:53.789Z,23.10
2023-08-23T04:06:55.380Z,22.99
2023-08-23T04:08:56.984Z,22.87
2023-08-23T04:10:58.750Z,22.71
2023-08-23T04:13:00.385Z,22.61
2023-08-23T04:15:02.186Z,22.58
2023-08-23T04:17:05.063Z,22.47
2023-08-23T04:19:06.611Z,22.10
2023-08-23T04:21:08.218Z,21.86
2023-08-23T04:23:09.776Z,22.12
2023-08-23T04:25:12.154Z,22.36
2023-08-23T04:27:13.917Z,22.58
2023-08-23T04:29:16.202Z,22.78
2023-08-23T04:31:20.238Z,22.94
2023-08-23T04:33:23.467Z,23.06
2023-08-23T04:35:25.114Z,23.13
2023-08-23T04:37:26.777Z,23.21
2023-08-23T04:39:29.841Z,23.28
2023-08-23T04:41:31.601Z,23.35
2023-08-23T04:43:33.519Z,23.39
2023-08-23T04:45:40.195Z,23.40
2023-08-23T04:47:41.950Z,23.44
2023-08-23T04:49:44.227Z,23.22
2023-08-23T04:51:45.847Z,23.08
2023-08-23T04:53:47.330Z,22.96
2023-08-23T04:55:49.375Z,22.86
2023-08-23T04:57:51.111Z,22.82
2023-08-23T04:59:53.984Z,22.81
2023-08-23T05:01:55.641Z,22.82
2023-08-23T05:03:57.195Z,22.91
2023-08-23T05:05:59.202Z,23.07
2023-08-23T05:08:01.033Z,23.22
2023-08-23T05:10:02.538Z,23.39
2023-08-23T05:12:04.215Z,23.54
2023-08-23T05:14:06.797Z,23.69
2023-08-23T05:16:09.385Z,23.82
2023-08-23T05:18:10.973Z,23.88
2023-08-23T05:20:12.744Z,23.97
2023-08-23T05:22:14.289Z,24.07
2023-08-23T05:24:15.869Z,24.16
2023-08-23T05:26:17.505Z,24.25
2023-08-23T05:28:19.756Z,24.34
2023-08-23T05:30:21.292Z,24.43
2023-08-23T05:32:23.004Z,24.53
2023-08-23T05:34:24.927Z,24.59
2023-08-23T05:36:26.438Z,24.59
2023-08-23T05:38:29.881Z,24.61
2023-08-23T05:40:31.442Z,24.69
2023-08-23T05:42:33.008Z,24.78
2023-08-23T05:44:34.579Z,24.82
2023-08-23T05:46:36.224Z,24.88
2023-08-23T05:48:39.881Z,25.00
2023-08-23T05:50:47.278Z,25.08
2023-08-23T05:52:49.375Z,25.14
2023-08-23T05:54:51.148Z,25.18
2023-08-23T05:56:53.000Z,25.18
2023-08-23T06:03:30.323Z,25.43
2023-08-23T06:05:32.380Z,25.54
2023-08-23T06:07:34.235Z,25.58
2023-08-23T06:09:38.574Z,25.58
2023-08-23T06:16:11.737Z,25.27
2023-08-23T06:18:16.505Z,25.36
2023-08-23T06:20:18.269Z,25.51
2023-08-23T06:22:20.614Z,25.54
2023-08-23T06:24:22.210Z,25.61
2023-08-23T06:26:23.760Z,25.76
2023-08-23T06:28:26.708Z,25.87
2023-08-23T06:32:47.796Z,25.68
2023-08-23T06:34:50.282Z,25.49
2023-08-23T06:36:53.116Z,25.49
2023-08-23T06:41:11.210Z,25.59
2023-08-23T06:43:17.896Z,25.81
2023-08-23T06:45:23.697Z,26.06
2023-08-23T06:47:26.338Z,26.20
2023-08-23T06:51:48.535Z,26.35
2023-08-23T06:54:01.431Z,26.14
2023-08-23T06:58:19.674Z,26.36
2023-08-23T07:07:15.275Z,26.05
2023-08-23T07:09:16.849Z,26.22
2023-08-23T07:11:18.407Z,26.47
2023-08-23T07:13:21.046Z,26.72
2023-08-23T07:15:24.239Z,26.91
2023-08-23T07:17:25.855Z,27.00
2023-08-23T07:19:27.539Z,26.95
2023-08-23T07:21:29.321Z,26.85
2023-08-23T07:23:31.435Z,26.85
2023-08-23T07:25:34.185Z,27.02
2023-08-23T07:27:38.095Z,27.01
2023-08-23T07:29:40.457Z,27.09
2023-08-23T07:31:44.772Z,27.01
2023-08-23T07:33:46.337Z,27.13
2023-08-23T07:35:54.568Z,27.31
2023-08-23T07:37:58.633Z,27.41
2023-08-23T07:40:00.391Z,27.09
2023-08-23T07:42:01.910Z,27.10
2023-08-23T07:44:03.683Z,27.15
2023-08-23T07:46:08.561Z,27.20
2023-08-23T07:48:10.297Z,27.44
2023-08-23T07:50:12.191Z,27.55
2023-08-23T07:52:13.932Z,27.75
2023-08-23T07:54:15.458Z,27.90
2023-08-23T07:56:19.004Z,28.04
2023-08-23T07:58:20.617Z,28.23
2023-08-23T08:00:22.479Z,28.41
2023-08-23T08:02:24.131Z,28.48
2023-08-23T08:04:26.482Z,28.63
2023-08-23T08:06:28.777Z,28.74
2023-08-23T08:08:36.609Z,28.77
2023-08-23T08:10:47.242Z,28.85
2023-08-23T08:12:48.753Z,28.91
2023-08-23T08:14:52.432Z,28.82
2023-08-23T08:16:54.122Z,28.67
2023-08-23T08:18:55.782Z,28.78
2023-08-23T08:20:57.282Z,28.82
2023-08-23T08:23:01.444Z,28.91
2023-08-23T08:25:03.631Z,29.12
2023-08-23T08:27:05.686Z,29.15
2023-08-23T08:29:07.473Z,29.33
2023-08-23T08:31:09.266Z,29.47
2023-08-23T08:33:11.004Z,29.43
2023-08-23T08:35:12.626Z,29.33
2023-08-23T08:42:17.801Z,29.39
2023-08-23T08:44:19.506Z,29.18
2023-08-23T08:46:21.175Z,29.05
2023-08-23T08:48:22.692Z,28.86
2023-08-23T08:50:24.286Z,28.77
2023-08-23T08:52:27.501Z,28.87
2023-08-23T08:54:29.804Z,29.09
2023-08-23T08:56:31.754Z,29.35
2023-08-23T08:58:33.322Z,29.47
2023-08-23T09:00:35.040Z,29.61
2023-08-23T09:02:37.160Z,29.89
2023-08-23T09:04:39.613Z,30.05
2023-08-23T09:06:41.654Z,30.05
2023-08-23T09:08:43.674Z,30.19
2023-08-23T09:10:45.382Z,30.46
2023-08-23T09:12:46.897Z,30.54
2023-08-23T09:14:49.174Z,30.74
2023-08-23T09:16:50.804Z,30.82
2023-08-23T09:18:56.209Z,30.90
2023-08-23T09:21:15.083Z,31.11
2023-08-23T09:23:16.686Z,31.25
2023-08-23T09:25:18.310Z,31.45
2023-08-23T09:27:36.908Z,31.50
2023-08-23T09:29:39.846Z,31.53
2023-08-23T09:31:41.747Z,31.70
2023-08-23T09:33:43.486Z,31.80
2023-08-23T09:35:51.827Z,31.80
2023-08-23T09:37:53.626Z,31.76
2023-08-23T09:39:55.601Z,31.29
2023-08-23T09:42:04.410Z,31.26
2023-08-23T09:44:08.516Z,31.45
2023-08-23T09:46:10.309Z,31.50
2023-08-23T09:48:12.271Z,31.45
2023-08-23T09:50:13.816Z,31.64
2023-08-23T09:52:16.083Z,31.78
2023-08-23T09:54:45.976Z,31.68
2023-08-23T09:56:56.040Z,31.60
2023-08-23T09:58:58.083Z,31.69
2023-08-23T10:00:59.872Z,31.97
2023-08-23T10:03:01.789Z,32.16
2023-08-23T10:05:06.117Z,32.10
2023-08-23T10:07:08.927Z,31.97
2023-08-23T10:09:10.444Z,32.00
2023-08-23T10:11:12.625Z,32.11
2023-08-23T10:13:18.461Z,32.31
2023-08-23T10:15:22.223Z,32.37
2023-08-23T10:17:26.746Z,32.31
2023-08-23T10:19:28.432Z,32.29
2023-08-23T10:21:30.257Z,32.46
2023-08-23T10:23:34.006Z,32.51
2023-08-23T10:25:36.298Z,32.61
2023-08-23T10:27:38.179Z,32.31
2023-08-23T10:29:40.111Z,32.08
2023-08-23T10:31:51.975Z,32.16
2023-08-23T10:33:58.481Z,32.32
2023-08-23T10:36:01.413Z,32.63
2023-08-23T10:38:11.358Z,32.66
2023-08-23T10:40:12.888Z,32.92
2023-08-23T10:42:14.519Z,32.93
2023-08-23T10:44:17.219Z,32.68
2023-08-23T10:46:22.049Z,32.76
2023-08-23T10:48:24.455Z,32.80
2023-08-23T10:50:26.666Z,32.92
2023-08-23T10:52:29.404Z,32.87
2023-08-23T10:54:32.229Z,32.67
2023-08-23T10:56:34.100Z,32.67
2023-08-23T10:58:36.539Z,32.66
2023-08-23T11:00:38.560Z,32.63
2023-08-23T11:02:40.230Z,32.75
2023-08-23T11:04:43.005Z,33.03
2023-08-23T11:06:44.872Z,33.26
2023-08-23T11:08:46.517Z,33.50
2023-08-23T11:10:49.191Z,33.75
2023-08-23T11:12:50.685Z,33.89
2023-08-23T11:14:52.562Z,33.94
2023-08-23T11:16:54.212Z,33.78
2023-08-23T11:18:55.869Z,33.63
2023-08-23T11:21:02.991Z,33.30
2023-08-23T11:23:07.622Z,33.06
2023-08-23T11:25:10.595Z,32.58
2023-08-23T11:27:13.344Z,32.29
2023-08-23T11:29:14.941Z,32.08
2023-08-23T11:31:17.020Z,32.02
2023-08-23T11:33:19.244Z,31.67
2023-08-23T11:35:23.037Z,31.75
2023-08-23T11:37:24.897Z,31.68
2023-08-23T11:39:26.759Z,31.81
2023-08-23T11:41:29.292Z,31.98
2023-08-23T11:43:33.233Z,31.97
2023-08-23T11:45:41.035Z,31.86
2023-08-23T11:47:42.829Z,31.63
2023-08-23T11:49:44.784Z,31.73
2023-08-23T11:51:49.485Z,31.61
2023-08-23T11:53:55.805Z,31.57
2023-08-23T11:55:58.699Z,31.69
2023-08-23T11:58:00.448Z,31.81
2023-08-23T12:00:02.274Z,31.91
2023-08-23T12:02:07.150Z,31.97
2023-08-23T12:04:10.708Z,31.94
2023-08-23T12:06:12.884Z,32.04
2023-08-23T12:08:17.166Z,32.03
2023-08-23T12:10:18.810Z,32.07
2023-08-23T12:12:22.829Z,32.04
2023-08-23T12:14:25.299Z,32.16
2023-08-23T12:16:27.116Z,32.00
2023-08-23T12:18:30.249Z,31.91
2023-08-23T12:20:32.286Z,31.75
2023-08-23T12:22:33.920Z,31.69
2023-08-23T12:24:35.716Z,31.66
2023-08-23T12:26:39.190Z,31.79
2023-08-23T12:28:40.863Z,32.00
2023-08-23T12:30:42.696Z,32.15
2023-08-23T12:32:44.472Z,32.10
2023-08-23T12:34:46.505Z,32.22
2023-08-23T12:36:48.291Z,32.28
2023-08-23T12:38:53.148Z,32.28
2023-08-23T12:40:54.709Z,32.35
2023-08-23T12:42:56.454Z,32.15
2023-08-23T12:45:00.531Z,32.23
2023-08-23T12:47:02.269Z,32.49
2023-08-23T12:49:05.923Z,32.64
2023-08-23T12:51:08.529Z,32.78
2023-08-23T12:53:10.206Z,32.79
2023-08-23T12:55:12.125Z,32.99
2023-08-23T12:57:13.808Z,33.01
2023-08-23T12:59:15.279Z,33.07
2023-08-23T13:01:16.932Z,32.97
2023-08-23T13:03:18.895Z,32.95
2023-08-23T13:05:20.565Z,33.03
2023-08-23T13:07:22.203Z,33.23
2023-08-23T13:09:24.413Z,33.25
2023-08-23T13:11:27.473Z,33.35
2023-08-23T13:13:29.126Z,33.30
2023-08-23T13:15:31.979Z,33.30
2023-08-23T13:17:34.320Z,33.36
2023-08-23T13:19:35.855Z,33.39
2023-08-23T13:21:38.022Z,33.43
2023-08-23T13:23:39.575Z,33.60
2023-08-23T13:25:41.175Z,33.65
2023-08-23T13:27:42.730Z,33.45
2023-08-23T13:29:48.128Z,33.24
2023-08-23T13:31:50.232Z,33.28
2023-08-23T13:33:52.033Z,33.29
2023-08-23T13:35:53.791Z,33.25
2023-08-23T13:37:55.280Z,33.25
2023-08-23T13:39:57.121Z,33.23
2023-08-23T13:41:59.033Z,33.29
2023-08-23T13:44:01.010Z,33.30
2023-08-23T13:46:02.749Z,33.30
2023-08-23T13:48:05.424Z,33.32
2023-08-23T13:50:07.710Z,33.43
2023-08-23T13:52:09.830Z,33.57
2023-08-23T13:54:11.611Z,33.71
2023-08-23T13:56:16.862Z,33.72
2023-08-23T13:58:18.624Z,33.66
2023-08-23T14:00:21.770Z,33.44
2023-08-23T14:02:23.880Z,33.43
2023-08-23T14:04:25.793Z,33.30
2023-08-23T14:06:27.269Z,33.01
2023-08-23T14:08:34.317Z,32.95
2023-08-23T14:10:37.344Z,32.91
2023-08-23T14:12:39.113Z,32.87
2023-08-23T14:14:43.040Z,32.92
2023-08-23T14:16:44.675Z,32.68
2023-08-23T14:18:47.364Z,32.56
2023-08-23T14:20:51.096Z,32.50
2023-08-23T14:22:53.396Z,32.51
2023-08-23T14:24:55.079Z,32.49
2023-08-23T14:26:56.603Z,32.57
2023-08-23T14:28:59.914Z,32.61
2023-08-23T14:31:02.503Z,32.62
2023-08-23T14:33:04.440Z,32.58
2023-08-23T14:35:07.441Z,32.38
2023-08-23T14:37:08.995Z,32.22
2023-08-23T14:39:14.247Z,32.21
2023-08-23T14:41:16.148Z,32.28
2023-08-23T14:43:18.360Z,32.38
2023-08-23T14:45:19.989Z,32.39
2023-08-23T14:47:21.609Z,32.47
2023-08-23T14:49:23.333Z,32.47
2023-08-23T14:51:25.508Z,32.50
2023-08-23T14:53:27.184Z,32.49
2023-08-23T14:55:30.931Z,32.69
2023-08-23T14:57:34.073Z,32.87
2023-08-23T14:59:36.853Z,33.13
2023-08-23T15:01:38.607Z,33.32
2023-08-23T15:03:40.348Z,33.48
2023-08-23T15:05:42.528Z,33.43
2023-08-23T15:07:45.772Z,33.53
2023-08-23T15:09:47.838Z,33.53
2023-08-23T15:11:49.433Z,33.54
2023-08-23T15:13:51.657Z,33.74
2023-08-23T15:15:57.558Z,33.86
2023-08-23T15:17:59.113Z,33.73
2023-08-23T15:20:02.010Z,33.93
2023-08-23T15:22:05.172Z,34.10
2023-08-23T15:24:07.906Z,34.22
2023-08-23T15:26:09.598Z,34.36
2023-08-23T15:28:11.739Z,34.44
2023-08-23T15:30:15.420Z,34.29
2023-08-23T15:32:16.947Z,34.09
2023-08-23T15:34:19.688Z,33.73
2023-08-23T15:36:21.285Z,33.78
2023-08-23T15:38:22.809Z,33.89
2023-08-23T15:40:29.577Z,33.94
2023-08-23T15:42:31.271Z,34.00
2023-08-23T15:44:34.734Z,34.04
2023-08-23T15:46:36.560Z,33.95
2023-08-23T15:48:38.381Z,33.95
2023-08-23T15:50:40.712Z,34.04
2023-08-23T15:52:42.700Z,34.04
2023-08-23T15:54:45.256Z,33.93
2023-08-23T15:56:46.852Z,33.76
2023-08-23T15:58:48.832Z,33.16
2023-08-23T16:00:50.489Z,33.08
2023-08-23T16:02:55.191Z,33.20
2023-08-23T16:04:57.009Z,33.07
2023-08-23T16:07:00.975Z,33.18
2023-08-23T16:09:02.833Z,33.25
2023-08-23T16:11:05.452Z,33.04
2023-08-23T16:13:07.104Z,33.00
2023-08-23T16:15:09.222Z,32.84
2023-08-23T16:17:10.834Z,32.82
2023-08-23T16:19:13.245Z,32.77
2023-08-23T16:21:15.812Z,32.51
2023-08-23T16:23:17.385Z,32.56
2023-08-23T16:25:19.446Z,32.56
2023-08-23T16:27:22.032Z,32.40
2023-08-23T16:29:25.251Z,32.32
2023-08-23T16:31:28.353Z,32.22
2023-08-23T16:33:29.927Z,32.13
2023-08-23T16:35:31.492Z,32.04
2023-08-23T16:37:34.664Z,31.97
2023-08-23T16:39:39.097Z,31.94
2023-08-23T16:41:40.860Z,31.95
2023-08-23T16:43:42.477Z,31.96
2023-08-23T16:48:09.148Z,31.88
2023-08-23T16:50:12.263Z,31.76
2023-08-23T16:52:15.640Z,31.74
2023-08-23T16:54:18.998Z,31.68
2023-08-23T16:56:20.589Z,31.59
2023-08-23T16:58:23.384Z,31.45
2023-08-23T17:00:26.526Z,31.35
2023-08-23T17:02:29.668Z,31.25
2023-08-23T17:04:32.592Z,31.13
2023-08-23T17:06:34.288Z,30.99
2023-08-23T17:08:35.877Z,30.90
2023-08-23T17:10:37.436Z,30.81
2023-08-23T17:12:39.759Z,30.71
2023-08-23T17:14:43.646Z,30.64
2023-08-23T17:16:45.479Z,30.58
2023-08-23T17:18:48.695Z,30.53
2023-08-23T17:20:50.312Z,30.48
2023-08-23T17:22:54.904Z,30.45
2023-08-23T17:24:59.150Z,30.41
2023-08-23T17:27:01.159Z,30.37
2023-08-23T17:29:14.443Z,30.35
2023-08-23T17:31:16.560Z,30.29
2023-08-23T17:33:19.780Z,30.29
2023-08-23T17:35:21.403Z,30.24
2023-08-23T17:37:23.026Z,30.20
2023-08-23T17:39:24.920Z,30.17
2023-08-23T17:41:27.481Z,30.15
2023-08-23T17:43:30.131Z,30.11
2023-08-23T17:45:31.860Z,30.06
2023-08-23T17:47:38.839Z,29.98
2023-08-23T17:49:40.969Z,29.94
2023-08-23T17:51:44.861Z,29.88
2023-08-23T17:53:46.401Z,29.89
2023-08-23T17:55:48.841Z,29.85
2023-08-23T17:57:50.800Z,29.82
2023-08-23T17:59:52.741Z,29.74
2023-08-23T18:01:54.443Z,29.71
2023-08-23T18:03:56.035Z,29.64
2023-08-23T18:06:00.713Z,29.59
2023-08-23T18:08:04.468Z,29.53
2023-08-23T18:10:06.866Z,29.51
2023-08-23T18:12:08.566Z,29.46
2023-08-23T18:14:10.262Z,29.41
2023-08-23T18:16:12.262Z,29.38
2023-08-23T18:18:14.495Z,29.36
2023-08-23T18:20:16.426Z,29.31
2023-08-23T18:22:18.384Z,29.25
2023-08-23T18:24:21.104Z,29.20
2023-08-23T18:26:23.464Z,29.17
2023-08-23T18:28:25.373Z,29.12
2023-08-23T18:30:28.947Z,29.06
2023-08-23T18:32:30.690Z,29.00
2023-08-23T18:34:32.379Z,28.94
2023-08-23T18:36:34.078Z,28.89
2023-08-23T18:38:36.472Z,28.87
2023-08-23T18:40:38.796Z,28.83
2023-08-23T18:42:41.890Z,28.82
2023-08-23T18:44:44.163Z,28.77
2023-08-23T18:46:47.441Z,28.72
2023-08-23T18:48:49.460Z,28.66
2023-08-23T18:50:51.336Z,28.60
2023-08-23T18:52:52.925Z,28.55
2023-08-23T18:54:56.259Z,28.53
2023-08-23T18:56:57.824Z,28.51
2023-08-23T18:59:02.235Z,28.50
2023-08-23T19:01:03.943Z,28.47
2023-08-23T19:03:05.567Z,28.43
2023-08-23T19:05:07.319Z,28.37
2023-08-23T19:07:09.143Z,28.28
2023-08-23T19:09:11.108Z,28.25
2023-08-23T19:11:12.638Z,28.15
2023-08-23T19:13:14.212Z,28.14
2023-08-23T19:15:16.135Z,28.17
2023-08-23T19:17:17.672Z,28.12
2023-08-23T19:19:19.373Z,28.06
2023-08-23T19:21:20.913Z,28.05
2023-08-23T19:23:22.453Z,28.05
2023-08-23T19:25:24.137Z,28.09
2023-08-23T19:27:27.198Z,28.08
2023-08-23T19:29:33.431Z,28.06
2023-08-23T19:31:35.996Z,28.03
2023-08-23T19:33:37.958Z,28.01
2023-08-23T19:35:40.210Z,27.99
2023-08-23T19:37:43.433Z,27.96
2023-08-23T19:39:47.086Z,27.91
2023-08-23T19:41:52.955Z,27.89
2023-08-23T19:43:55.172Z,27.88
2023-08-23T19:45:56.859Z,27.84
2023-08-23T19:47:58.552Z,27.82
2023-08-23T19:50:03.514Z,27.80
2023-08-23T19:52:05.275Z,27.76
2023-08-23T19:54:06.934Z,27.75
2023-08-23T19:56:10.226Z,27.68
2023-08-23T19:58:12.136Z,27.67
2023-08-23T20:00:14.630Z,27.68
2023-08-23T20:02:16.330Z,27.67
2023-08-23T20:04:19.034Z,27.65
2023-08-23T20:06:20.549Z,27.63
2023-08-23T20:08:22.354Z,27.64
2023-08-23T20:10:23.984Z,27.63
2023-08-23T20:12:25.565Z,27.60
2023-08-23T20:14:30.820Z,27.55
2023-08-23T20:16:32.524Z,27.51
2023-08-23T20:18:35.381Z,27.44
2023-08-23T20:20:36.977Z,27.42
2023-08-23T20:22:39.899Z,27.40
2023-08-23T20:24:42.694Z,27.40
2023-08-23T20:26:45.685Z,27.39
2023-08-23T20:28:47.292Z,27.37
2023-08-23T20:30:49.961Z,27.37
2023-08-23T20:32:52.804Z,27.36
2023-08-23T20:34:54.951Z,27.34
2023-08-23T20:36:56.621Z,27.34
2023-08-23T20:38:58.422Z,27.28
2023-08-23T20:41:03.375Z,27.24
2023-08-23T20:43:06.451Z,27.22
2023-08-23T20:45:08.372Z,27.21
2023-08-23T20:47:09.943Z,27.18
2023-08-23T20:49:11.598Z,27.14
2023-08-23T20:51:13.486Z,27.13
2023-08-23T20:53:15.108Z,27.14
2023-08-23T20:55:17.108Z,27.12
2023-08-23T20:57:18.744Z,27.14
2023-08-23T20:59:20.378Z,27.14
2023-08-23T21:01:22.148Z,27.14
2023-08-23T21:03:23.766Z,27.13
2023-08-23T21:05:25.365Z,27.10
2023-08-23T21:07:28.621Z,27.08
2023-08-23T21:09:30.338Z,27.01
2023-08-23T21:11:34.121Z,27.01
2023-08-23T21:13:36.052Z,26.96
2023-08-23T21:15:43.389Z,26.86
2023-08-23T21:17:45.278Z,26.80
2023-08-23T21:19:48.091Z,26.73
2023-08-23T21:21:49.890Z,26.61
2023-08-23T21:23:51.496Z,26.54
2023-08-23T21:25:54.336Z,26.52
2023-08-23T21:27:55.999Z,26.54
2023-08-23T21:29:57.557Z,26.49
2023-08-23T21:31:59.212Z,26.38
2023-08-23T21:34:02.044Z,26.20
2023-08-23T21:36:03.700Z,26.03
2023-08-23T21:38:05.436Z,26.05
2023-08-23T21:40:08.709Z,26.03
2023-08-23T21:42:10.737Z,26.09
2023-08-23T21:44:13.194Z,26.18
2023-08-23T21:46:14.764Z,26.23
2023-08-23T21:48:16.771Z,26.26
2023-08-23T21:50:20.116Z,26.31
2023-08-23T21:52:21.690Z,26.32
2023-08-23T21:54:23.240Z,26.34
2023-08-23T21:56:24.951Z,26.37
2023-08-23T21:58:27.528Z,26.41
2023-08-23T22:00:29.528Z,26.41
2023-08-23T22:02:34.208Z,26.43
2023-08-23T22:04:35.817Z,26.44
2023-08-23T22:06:37.506Z,26.45
2023-08-23T22:08:39.528Z,26.42
2023-08-23T22:10:41.324Z,26.41
2023-08-23T22:12:43.260Z,26.42
2023-08-23T22:14:44.890Z,26.42
2023-08-23T22:16:46.495Z,26.41
2023-08-23T22:18:49.154Z,26.38
2023-08-23T22:20:53.922Z,26.38
2023-08-23T22:22:56.109Z,26.39
2023-08-23T22:24:57.616Z,26.41
2023-08-23T22:26:59.500Z,26.43
2023-08-23T22:29:01.044Z,26.40
2023-08-23T22:31:02.754Z,26.38
2023-08-23T22:33:04.732Z,26.33
2023-08-23T22:35:06.385Z,26.08
2023-08-23T22:37:07.918Z,25.91
2023-08-23T22:39:09.575Z,25.81
2023-08-23T22:41:12.234Z,25.75
2023-08-23T22:43:14.817Z,25.70
2023-08-23T22:45:16.495Z,25.69
2023-08-23T22:47:18.927Z,25.60
2023-08-23T22:49:21.040Z,25.31
2023-08-23T22:51:22.697Z,25.12
2023-08-23T22:53:24.527Z,25.16
2023-08-23T22:55:26.617Z,25.26
2023-08-23T22:57:28.180Z,25.38
2023-08-23T22:59:30.751Z,25.46
2023-08-23T23:01:32.839Z,25.54
2023-08-23T23:03:34.750Z,25.56
2023-08-23T23:05:40.348Z,25.59
2023-08-23T23:07:41.938Z,25.62
2023-08-23T23:09:43.693Z,25.63
2023-08-23T23:11:45.480Z,25.64
2023-08-23T23:13:47.032Z,25.65
2023-08-23T23:15:49.244Z,25.65
2023-08-23T23:17:51.118Z,25.61
2023-08-23T23:19:53.095Z,25.56
2023-08-23T23:21:54.711Z,25.54
2023-08-23T23:23:57.313Z,25.54
2023-08-23T23:25:58.932Z,25.51
2023-08-23T23:28:01.669Z,25.52
2023-08-23T23:30:03.650Z,25.49
2023-08-23T23:32:06.327Z,25.45
2023-08-23T23:34:08.089Z,25.43
2023-08-23T23:36:10.496Z,25.41
2023-08-23T23:38:15.483Z,25.39
2023-08-23T23:40:17.905Z,25.38
2023-08-23T23:42:20.116Z,25.35
2023-08-23T23:44:21.725Z,25.31
2023-08-23T23:46:24.244Z,25.19
2023-08-23T23:48:25.841Z,25.02
2023-08-23T23:50:28.343Z,25.04
2023-08-23T23:52:31.489Z,25.10
2023-08-23T23:54:35.529Z,25.18
2023-08-23T23:56:37.177Z,25.23
2023-08-23T23:58:38.933Z,25.26
